createdAt,value
2022-08-02T00:00:02.744Z,0
2022-08-02T00:05:02.578Z,0
2022-08-02T00:10:03.077Z,0
2022-08-02T00:15:03.085Z,0
2022-08-02T00:20:02.897Z,0
2022-08-02T00:25:02.744Z,0
2022-08-02T00:30:03.498Z,0
2022-08-02T00:35:03.121Z,0
2022-08-02T00:40:03.008Z,0
2022-08-02T00:45:02.867Z,0
2022-08-02T00:50:02.775Z,0
2022-08-02T00:55:03.488Z,0
2022-08-02T01:00:03.348Z,0
2022-08-02T01:05:03.014Z,0
2022-08-02T01:10:02.708Z,0
2022-08-02T01:15:03.443Z,0
2022-08-02T01:20:02.852Z,0
2022-08-02T01:25:02.941Z,0
2022-08-02T01:30:03.363Z,0
2022-08-02T01:35:03.361Z,0
2022-08-02T01:40:02.962Z,0
2022-08-02T01:45:02.829Z,0
2022-08-02T01:50:02.926Z,0
2022-08-02T01:55:03.669Z,0
2022-08-02T02:00:03.284Z,0
2022-08-02T02:05:03.033Z,0
2022-08-02T02:10:02.998Z,0
2022-08-02T02:15:02.652Z,0
2022-08-02T02:20:03.211Z,0
2022-08-02T02:25:06.968Z,0
2022-08-02T02:30:02.511Z,0
2022-08-02T02:35:03.166Z,0
2022-08-02T02:40:03.385Z,0
2022-08-02T02:45:03.151Z,0.11
2022-08-02T02:50:02.631Z,0.34
2022-08-02T02:55:04.258Z,0.79
2022-08-02T03:00:03.419Z,1.81
2022-08-02T03:05:03.213Z,3.74
2022-08-02T03:10:02.732Z,7.81
2022-08-02T03:15:02.815Z,6.67
2022-08-02T03:20:02.513Z,15
2022-08-02T03:25:03.320Z,25
2022-08-02T03:30:03.425Z,43.33
2022-08-02T03:35:02.978Z,68.33
2022-08-02T03:40:02.507Z,141.67
2022-08-02T03:45:09.073Z,181.67
2022-08-02T03:50:03.132Z,220
2022-08-02T03:55:03.749Z,275
2022-08-02T04:00:03.293Z,401.67
2022-08-02T04:05:02.962Z,473.33
2022-08-02T04:10:02.988Z,573.33
2022-08-02T04:15:02.595Z,630
2022-08-02T04:20:02.376Z,696.67
2022-08-02T04:25:05.830Z,921.67
2022-08-02T04:30:02.670Z,1026.67
2022-08-02T04:35:21.434Z,1225
2022-08-02T04:40:02.959Z,1326.67
2022-08-02T04:45:02.807Z,1510
2022-08-02T04:50:02.404Z,1728.33
2022-08-02T04:55:03.990Z,1971.67
2022-08-02T05:00:02.879Z,2055
2022-08-02T05:05:10.556Z,2046.67
2022-08-02T05:10:04.095Z,3295
2022-08-02T05:15:03.366Z,4008.33
2022-08-02T05:20:03.271Z,3810
2022-08-02T05:25:02.979Z,2481.67
2022-08-02T05:30:02.656Z,5346.67
2022-08-02T05:35:03.260Z,6063.33
2022-08-02T05:40:03.281Z,6258.33
2022-08-02T05:45:03.008Z,6391.67
2022-08-02T05:50:02.470Z,6395
2022-08-02T05:55:04.173Z,6683.33
2022-08-02T06:00:03.710Z,7606.67
2022-08-02T06:05:03.604Z,8498.33
2022-08-02T06:10:02.598Z,9038.33
2022-08-02T06:15:02.422Z,10026.67
2022-08-02T06:20:03.388Z,5008.33
2022-08-02T06:25:02.928Z,11675
2022-08-02T06:30:02.544Z,11895
2022-08-02T06:35:02.677Z,12148.33
2022-08-02T06:40:02.451Z,9071.67
2022-08-02T06:45:03.108Z,11931.67
2022-08-02T06:50:03.463Z,30550
2022-08-02T06:55:03.734Z,9878.33
2022-08-02T07:00:02.652Z,12835
2022-08-02T07:05:02.356Z,28603.33
2022-08-02T07:10:03.346Z,13353.33
2022-08-02T07:15:03.158Z,29883.33
2022-08-02T07:20:02.616Z,34516.67
2022-08-02T07:25:02.416Z,31460
2022-08-02T07:30:03.374Z,6465
2022-08-02T07:35:07.799Z,10581.67
2022-08-02T07:40:04.056Z,29233.33
2022-08-02T07:45:03.151Z,37660
2022-08-02T07:50:02.727Z,43873.33
2022-08-02T07:55:04.619Z,64123.28
2022-08-02T08:00:03.385Z,62137.73
2022-08-02T08:05:03.288Z,60263.59
2022-08-02T08:10:02.941Z,49740
2022-08-02T08:15:02.435Z,42413.33
2022-08-02T08:20:03.424Z,42020
2022-08-02T08:25:04.452Z,37836.67
2022-08-02T08:30:03.014Z,8751.67
2022-08-02T08:35:03.002Z,40116.67
2022-08-02T08:40:02.433Z,9283.33
2022-08-02T08:45:04.071Z,10313.33
2022-08-02T08:50:02.987Z,59462.19
2022-08-02T08:55:03.951Z,11041.67
2022-08-02T09:00:02.799Z,5788.33
2022-08-02T09:05:03.317Z,61440.55
2022-08-02T09:10:02.947Z,64112.5
2022-08-02T09:15:02.868Z,65555.39
2022-08-02T09:20:02.559Z,60881.72
2022-08-02T09:25:03.068Z,67767.34
2022-08-02T09:30:15.742Z,66362.19
2022-08-02T09:35:03.252Z,59014.77
2022-08-02T09:40:02.789Z,49463.33
2022-08-02T09:45:02.809Z,61171.02
2022-08-02T09:50:03.794Z,74933.28
2022-08-02T09:55:03.458Z,71878.59
2022-08-02T10:00:03.560Z,65754.84
2022-08-02T10:05:03.227Z,63154.77
2022-08-02T10:10:03.014Z,60903.28
2022-08-02T10:15:02.605Z,67379.22
2022-08-02T10:20:05.716Z,69627.11
2022-08-02T10:25:02.506Z,64804.3
2022-08-02T10:30:03.214Z,62890.62
2022-08-02T10:35:27.363Z,70268.59
2022-08-02T10:40:02.871Z,61641.8
2022-08-02T10:45:02.579Z,66903.05
2022-08-02T10:50:03.816Z,70099.69
2022-08-02T10:55:23.180Z,75581.95
2022-08-02T11:00:02.786Z,74721.25
2022-08-02T11:05:02.713Z,74365.47
2022-08-02T11:10:02.665Z,47886.67
2022-08-02T11:15:02.750Z,74110.31
2022-08-02T11:20:02.748Z,76435.47
2022-08-02T11:25:02.339Z,76643.91
2022-08-02T11:30:03.255Z,76593.59
2022-08-02T11:35:03.080Z,76672.66
2022-08-02T11:40:02.463Z,75139.92
2022-08-02T11:45:03.303Z,73359.22
2022-08-02T11:50:03.280Z,73213.67
2022-08-02T11:55:03.922Z,71794.14
2022-08-02T12:00:02.634Z,72687.19
2022-08-02T12:05:10.127Z,74068.98
2022-08-02T12:10:02.688Z,73278.36
2022-08-02T12:15:02.379Z,64229.3
2022-08-02T12:20:04.989Z,65372.11
2022-08-02T12:25:03.081Z,69262.34
2022-08-02T12:30:02.417Z,69503.13
2022-08-02T12:35:03.362Z,69799.61
2022-08-02T12:40:03.131Z,66588.59
2022-08-02T12:45:03.222Z,61853.83
2022-08-02T12:50:03.282Z,62657.03
2022-08-02T12:55:03.611Z,64347.89
2022-08-02T13:00:03.434Z,63280.55
2022-08-02T13:05:03.295Z,61875.39
2022-08-02T13:10:04.468Z,66006.41
2022-08-02T13:15:02.500Z,66498.75
2022-08-02T13:20:05.047Z,66029.77
2022-08-02T13:25:02.994Z,67745.78
2022-08-02T13:30:02.501Z,60612.19
2022-08-02T13:35:05.349Z,62879.84
2022-08-02T13:40:23.342Z,67526.56
2022-08-02T13:45:14.978Z,63046.95
2022-08-02T13:50:03.550Z,44386.67
2022-08-02T13:55:13.034Z,45670
2022-08-02T14:00:03.119Z,41366.67
2022-08-02T14:05:02.665Z,44680
2022-08-02T14:10:02.535Z,40780
2022-08-02T14:15:03.032Z,35320
2022-08-02T14:20:03.184Z,12861.67
2022-08-02T14:25:09.807Z,11551.67
2022-08-02T14:30:03.332Z,43646.67
2022-08-02T14:35:03.562Z,36710
2022-08-02T14:40:03.433Z,32096.67
2022-08-02T14:45:02.684Z,28020
2022-08-02T14:50:02.964Z,28093.33
2022-08-02T14:55:03.817Z,11771.67
2022-08-02T15:00:02.843Z,32703.33
2022-08-02T15:05:02.522Z,12456.67
2022-08-02T15:10:02.660Z,40546.67
2022-08-02T15:15:03.262Z,34860
2022-08-02T15:20:26.219Z,10071.67
2022-08-02T15:25:03.166Z,7233.33
2022-08-02T15:30:04.100Z,11711.67
2022-08-02T15:35:02.542Z,12383.33
2022-08-02T15:40:03.277Z,27936.67
2022-08-02T15:45:03.151Z,11910
2022-08-02T15:50:02.909Z,13596.67
2022-08-02T15:55:08.149Z,9018.33
2022-08-02T16:00:02.542Z,9091.67
2022-08-02T16:05:14.343Z,8001.67
2022-08-02T16:10:03.128Z,8875
2022-08-02T16:15:02.997Z,7800
2022-08-02T16:20:02.616Z,7201.67
2022-08-02T16:25:03.332Z,7993.33
2022-08-02T16:30:03.274Z,6931.67
2022-08-02T16:35:09.560Z,6486.67
2022-08-02T16:40:03.060Z,7555
2022-08-02T16:45:03.221Z,6871.67
2022-08-02T16:50:11.611Z,6368.33
2022-08-02T16:55:11.780Z,5421.67
2022-08-02T17:00:03.672Z,4533.33
2022-08-02T17:05:03.391Z,3526.67
2022-08-02T17:10:09.823Z,3206.67
2022-08-02T17:20:02.462Z,2838.33
2022-08-02T17:25:03.788Z,2685
2022-08-02T17:30:11.598Z,2456.67
2022-08-02T17:35:04.421Z,3246.67
2022-08-02T17:40:04.631Z,2900
2022-08-02T17:46:02.326Z,2790
2022-08-02T17:50:03.887Z,2751.67
2022-08-02T17:55:04.090Z,2535
2022-08-02T18:00:05.232Z,2008.33
2022-08-02T18:05:04.874Z,2006.67
2022-08-02T18:10:05.732Z,1916.67
2022-08-02T18:15:14.931Z,1600
2022-08-02T18:20:11.482Z,1156.67
2022-08-02T18:25:09.760Z,1065
2022-08-02T18:30:05.469Z,853.33
2022-08-02T18:35:03.770Z,541.67
2022-08-02T18:40:02.697Z,426.67
2022-08-02T18:45:04.304Z,303.33
2022-08-02T18:50:04.251Z,211.67
2022-08-02T18:55:59.190Z,150
2022-08-02T19:00:02.852Z,108.33
2022-08-02T19:05:07.377Z,71.67
2022-08-02T19:10:02.892Z,40
2022-08-02T19:15:03.037Z,21.67
2022-08-02T19:20:02.699Z,10
2022-08-02T19:25:04.859Z,10.75
2022-08-02T19:30:03.448Z,5.21
2022-08-02T19:35:34.854Z,2.49
2022-08-02T19:40:03.416Z,1.13
2022-08-02T19:45:03.537Z,0.45
2022-08-02T19:50:04.157Z,0.11
2022-08-02T19:56:03.603Z,0
2022-08-02T20:00:03.292Z,0
2022-08-02T20:05:27.337Z,0
2022-08-02T20:10:02.851Z,0
2022-08-02T20:15:14.573Z,0
2022-08-02T20:20:03.241Z,0
2022-08-02T20:25:08.098Z,0
2022-08-02T20:30:03.080Z,0
2022-08-02T20:35:02.801Z,0
2022-08-02T20:40:02.342Z,0
2022-08-02T20:45:03.022Z,0
2022-08-02T20:50:03.320Z,0
2022-08-02T20:55:04.252Z,0
2022-08-02T21:00:03.067Z,0
2022-08-02T21:05:15.537Z,0
2022-08-02T21:10:05.659Z,0
2022-08-02T21:15:03.320Z,0
2022-08-02T21:20:03.009Z,0
2022-08-02T21:25:09.203Z,0
2022-08-02T21:30:03.395Z,0
2022-08-02T21:35:03.507Z,0
2022-08-02T21:40:02.650Z,0
2022-08-02T21:45:20.513Z,0
2022-08-02T21:50:17.388Z,0
2022-08-02T21:55:04.731Z,0
2022-08-02T22:00:07.511Z,0
2022-08-02T22:10:03.046Z,0
2022-08-02T22:15:03.938Z,0
2022-08-02T22:20:02.873Z,0
2022-08-02T22:25:05.034Z,0
2022-08-02T22:30:03.496Z,0
2022-08-02T22:35:09.279Z,0
2022-08-02T22:40:10.009Z,0
2022-08-02T22:45:02.587Z,0
2022-08-02T22:50:02.964Z,0
2022-08-02T22:55:04.468Z,0
2022-08-02T23:00:02.986Z,0
2022-08-02T23:05:02.788Z,0
2022-08-02T23:10:02.799Z,0
2022-08-02T23:15:03.262Z,0
2022-08-02T23:20:04.341Z,0
2022-08-02T23:25:03.146Z,0
2022-08-02T23:30:03.807Z,0
2022-08-02T23:35:02.770Z,0
2022-08-02T23:40:02.346Z,0
2022-08-02T23:45:03.397Z,0
2022-08-02T23:50:03.272Z,0
2022-08-02T23:55:03.895Z,0
